Time;durP1;ratioP1;P1;durP2;ratioP2;P2;SDS_P1;SDS_P2;PMS_P1;PMS_P2;Temp;Humidity;BMP_temperature;BMP_pressure;BME280_temperature;BME280_humidity;BME280_pressure;Samples;Min_cycle;Max_cycle;Signal;HPM_P1;HPM_P2
2022/04/12 00:00:53;;;;;;;79.15;7.40;;;;;;;4.14;100.00;97906.38;4998893;28;20103;-57
2022/04/12 00:03:18;;;;;;;88.55;7.43;;;;;;;4.01;100.00;97910.91;5000335;28;20022;-58
2022/04/12 00:05:44;;;;;;;79.43;7.57;;;;;;;4.10;100.00;97914.19;5000645;28;20033;-57
2022/04/12 00:08:09;;;;;;;95.40;8.20;;;;;;;4.02;100.00;97915.16;4999750;28;20088;-55
2022/04/12 00:10:35;;;;;;;91.50;7.68;;;;;;;3.80;100.00;97916.38;4998229;28;20088;-56
2022/04/12 00:13:02;;;;;;;79.50;7.45;;;;;;;4.03;100.00;97909.16;4999451;28;20054;-57
2022/04/12 00:15:27;;;;;;;82.55;8.00;;;;;;;3.86;100.00;97909.41;4998125;28;20042;-57
2022/04/12 00:20:38;;;;;;;81.13;7.80;;;;;;;3.91;100.00;97899.00;4996126;28;20045;-56
2022/04/12 00:23:07;;;;;;;76.93;7.90;;;;;;;3.84;100.00;97898.28;4997412;28;20017;-57
2022/04/12 00:25:33;;;;;;;84.13;8.30;;;;;;;3.92;100.00;97898.16;4998264;28;20034;-56
2022/04/12 00:27:59;;;;;;;66.70;7.20;;;;;;;3.82;100.00;97896.56;4996811;28;20029;-57
2022/04/12 00:30:26;;;;;;;75.72;8.48;;;;;;;3.67;100.00;97892.50;4998118;28;20607;-57
2022/04/12 00:32:52;;;;;;;88.72;8.82;;;;;;;3.63;100.00;97883.97;4997524;28;20030;-56
2022/04/12 00:35:19;;;;;;;77.63;8.60;;;;;;;3.72;100.00;97887.28;4997756;28;20128;-56
2022/04/12 00:37:45;;;;;;;81.15;8.07;;;;;;;3.82;100.00;97883.69;4999840;28;20044;-57
2022/04/12 00:40:11;;;;;;;67.43;7.65;;;;;;;3.79;100.00;97883.75;4997513;28;20034;-57
2022/04/12 00:42:37;;;;;;;81.47;8.18;;;;;;;3.71;100.00;97867.50;4997858;28;20077;-56
2022/04/12 00:45:03;;;;;;;80.88;7.78;;;;;;;3.70;100.00;97869.25;4999137;28;20050;-57
2022/04/12 00:47:29;;;;;;;93.05;8.60;;;;;;;3.76;100.00;97868.31;4998024;28;20069;-55
2022/04/12 00:49:54;;;;;;;77.75;7.53;;;;;;;3.98;100.00;97869.66;4978991;28;20246;-55
2022/04/12 00:52:19;;;;;;;83.05;8.18;;;;;;;3.93;100.00;97874.03;4996550;28;20030;-56
2022/04/12 00:54:45;;;;;;;112.57;9.35;;;;;;;4.04;100.00;97868.69;5000876;28;20038;-55
2022/04/12 00:57:12;;;;;;;79.60;7.85;;;;;;;4.03;100.00;97869.59;4997529;28;20045;-58
2022/04/12 00:59:37;;;;;;;79.65;7.40;;;;;;;3.79;100.00;97873.44;4998576;28;20018;-57
2022/04/12 01:02:06;;;;;;;81.60;7.30;;;;;;;3.95;100.00;97886.91;4998037;28;20088;-56
2022/04/12 01:04:33;;;;;;;87.20;7.70;;;;;;;4.25;100.00;97885.56;4999199;28;20033;-55
2022/04/12 01:06:59;;;;;;;75.93;8.05;;;;;;;3.94;100.00;97880.91;5002958;28;20042;-57
2022/04/12 01:09:27;;;;;;;74.57;8.07;;;;;;;3.65;100.00;97879.63;5003048;28;20084;-57
2022/04/12 01:11:56;;;;;;;80.53;7.80;;;;;;;4.02;100.00;97866.13;5006246;28;20097;-57
2022/04/12 01:14:24;;;;;;;69.00;7.78;;;;;;;3.76;100.00;97860.56;5004189;28;20025;-57
2022/04/12 01:16:51;;;;;;;93.10;8.90;;;;;;;3.84;100.00;97867.31;5000871;28;20064;-55
2022/04/12 01:19:16;;;;;;;83.00;8.30;;;;;;;3.97;100.00;97867.97;5001331;28;20108;-56
2022/04/12 01:22:02;;;;;;;93.60;8.65;;;;;;;3.82;100.00;97860.44;5001379;28;20035;-56
2022/04/12 01:24:29;;;;;;;82.50;8.48;;;;;;;3.88;100.00;97868.13;5001903;28;20041;-56
2022/04/12 01:26:55;;;;;;;97.30;9.00;;;;;;;3.87;100.00;97866.41;5000962;28;20042;-58
2022/04/12 01:29:22;;;;;;;85.57;8.43;;;;;;;3.73;100.00;97868.34;5001750;28;20033;-57
2022/04/12 01:31:48;;;;;;;82.40;8.13;;;;;;;3.91;100.00;97865.47;5002812;28;20120;-57
2022/04/12 01:34:13;;;;;;;87.40;8.82;;;;;;;3.91;100.00;97878.38;5002485;28;20022;-56
2022/04/12 01:36:39;;;;;;;76.90;8.68;;;;;;;3.94;100.00;97875.75;5001492;28;20053;-55
2022/04/12 01:39:04;;;;;;;87.47;8.60;;;;;;;3.92;100.00;97874.91;4986034;28;20029;-57
2022/04/12 01:41:30;;;;;;;80.63;7.85;;;;;;;3.98;100.00;97884.28;5001290;28;20061;-56
2022/04/12 01:43:55;;;;;;;85.68;8.20;;;;;;;3.93;100.00;97879.19;5000364;28;20057;-57
2022/04/12 01:46:20;;;;;;;71.93;8.00;;;;;;;4.09;100.00;97881.53;5004697;28;20049;-55
2022/04/12 01:48:48;;;;;;;94.78;9.32;;;;;;;4.01;100.00;97879.94;5001992;28;20080;-56
2022/04/12 01:51:13;;;;;;;82.25;8.18;;;;;;;4.04;100.00;97885.06;5000687;28;20064;-57
2022/04/12 01:53:39;;;;;;;81.05;8.52;;;;;;;3.94;100.00;97877.47;5002782;28;20021;-56
2022/04/12 01:56:05;;;;;;;82.85;8.07;;;;;;;3.86;100.00;97881.03;5001064;28;20091;-56
2022/04/12 01:58:31;;;;;;;82.63;8.13;;;;;;;3.76;100.00;97868.31;5000430;28;20057;-56
2022/04/12 02:00:56;;;;;;;86.88;8.82;;;;;;;3.65;100.00;97861.56;5002684;28;20042;-57
2022/04/12 02:03:22;;;;;;;93.93;8.98;;;;;;;3.52;100.00;97869.53;5001151;28;20421;-57
2022/04/12 02:05:47;;;;;;;70.32;8.05;;;;;;;3.41;100.00;97867.09;5001643;28;20720;-55
2022/04/12 02:08:13;;;;;;;80.03;8.57;;;;;;;3.63;100.00;97870.22;4998665;28;20026;-57
2022/04/12 02:10:38;;;;;;;85.32;8.95;;;;;;;3.50;100.00;97866.97;5000637;28;20167;-57
2022/04/12 02:13:03;;;;;;;94.30;8.60;;;;;;;3.61;100.00;97865.09;5003677;28;20037;-55
2022/04/12 02:15:29;;;;;;;87.80;8.32;;;;;;;3.45;100.00;97861.88;5000855;28;20113;-56
2022/04/12 02:17:54;;;;;;;100.75;9.07;;;;;;;3.61;100.00;97859.06;5001922;28;20061;-57
2022/04/12 02:20:19;;;;;;;88.50;9.23;;;;;;;3.56;100.00;97850.56;5001011;28;20431;-57
2022/04/12 02:22:45;;;;;;;95.22;9.32;;;;;;;3.42;100.00;97855.94;5002903;28;20033;-57
2022/04/12 02:25:10;;;;;;;73.43;8.30;;;;;;;3.60;100.00;97853.06;4999203;28;20092;-55
2022/04/12 02:27:35;;;;;;;74.80;8.30;;;;;;;3.60;100.00;97853.06;5002387;28;20048;-57
2022/04/12 02:30:01;;;;;;;76.90;8.88;;;;;;;3.55;100.00;97854.88;5001885;28;20041;-57
2022/04/12 02:32:26;;;;;;;97.47;9.48;;;;;;;3.58;100.00;97853.97;5002401;28;20082;-57
2022/04/12 02:34:51;;;;;;;112.03;9.85;;;;;;;3.40;100.00;97853.38;5001487;28;20075;-56
2022/04/12 02:37:16;;;;;;;79.78;8.73;;;;;;;3.38;100.00;97851.66;5001818;28;20650;-55
2022/04/12 02:39:42;;;;;;;86.75;8.70;;;;;;;3.42;100.00;97851.63;4990219;28;20643;-56
2022/04/12 02:42:07;;;;;;;93.35;8.82;;;;;;;3.51;100.00;97842.91;5000874;28;20034;-57
2022/04/12 02:44:33;;;;;;;91.82;8.95;;;;;;;3.29;100.00;97852.69;5000670;28;20100;-57
2022/04/12 02:46:58;;;;;;;89.55;8.48;;;;;;;3.40;100.00;97850.78;4997294;28;20124;-56
2022/04/12 02:49:23;;;;;;;82.60;8.63;;;;;;;3.44;100.00;97847.28;4998364;28;20025;-56
2022/04/12 02:51:51;;;;;;;85.40;8.52;;;;;;;3.45;100.00;97848.13;4998169;28;20121;-56
2022/04/12 02:54:17;;;;;;;85.18;8.50;;;;;;;3.35;100.00;97844.84;4998963;28;20066;-56
2022/04/12 02:56:42;;;;;;;91.43;8.88;;;;;;;3.42;100.00;97837.88;4999937;28;20538;-57
2022/04/12 02:59:07;;;;;;;87.22;8.95;;;;;;;3.36;100.00;97833.66;5000071;28;20563;-56
2022/04/12 03:01:34;;;;;;;91.10;8.85;;;;;;;3.32;100.00;97838.88;4998779;28;20088;-56
2022/04/12 03:03:59;;;;;;;94.13;9.18;;;;;;;3.24;100.00;97842.41;4999159;28;20067;-56
2022/04/12 03:06:25;;;;;;;161.65;12.63;;;;;;;3.26;100.00;97838.09;4994879;28;20046;-56
2022/04/12 03:08:50;;;;;;;112.43;9.40;;;;;;;3.32;100.00;97842.31;4997881;28;20029;-57
2022/04/12 03:11:15;;;;;;;94.75;8.50;;;;;;;3.33;100.00;97838.88;4997352;28;20048;-56
2022/04/12 03:13:41;;;;;;;71.82;8.05;;;;;;;3.28;100.00;97836.34;4999103;28;20030;-57
2022/04/12 03:16:06;;;;;;;87.32;8.93;;;;;;;3.09;100.00;97840.06;5001272;28;20056;-58
2022/04/12 03:18:32;;;;;;;81.45;8.30;;;;;;;3.13;100.00;97836.56;5001359;28;20107;-56
2022/04/12 03:20:57;;;;;;;94.95;8.60;;;;;;;3.15;100.00;97844.28;4999831;28;20561;-55
2022/04/12 03:23:23;;;;;;;96.28;8.98;;;;;;;3.16;100.00;97845.97;4999970;28;20030;-58
2022/04/12 03:25:50;;;;;;;85.63;9.35;;;;;;;3.15;100.00;97847.69;4998028;28;20037;-56
2022/04/12 03:28:15;;;;;;;91.57;9.27;;;;;;;3.07;100.00;97847.81;5001940;28;20040;-56
2022/04/12 03:30:41;;;;;;;73.05;6.28;;;;;;;3.01;100.00;97850.44;4999227;28;20034;-56
2022/04/12 03:33:06;;;;;;;96.28;9.35;;;;;;;2.95;100.00;97847.13;5000770;28;20033;-56
2022/04/12 03:35:32;;;;;;;84.80;8.98;;;;;;;2.95;100.00;97858.28;4996475;28;20058;-55
2022/04/12 03:38:00;;;;;;;74.57;7.95;;;;;;;2.69;100.00;97862.00;4998982;28;20030;-57
2022/04/12 03:40:27;;;;;;;89.68;8.98;;;;;;;2.83;100.00;97859.28;5000663;28;20041;-57
2022/04/12 03:42:53;;;;;;;84.97;8.35;;;;;;;2.70;100.00;97866.31;5000751;28;20028;-57
2022/04/12 03:45:18;;;;;;;89.25;8.95;;;;;;;2.59;100.00;97864.72;4998995;28;20033;-55
2022/04/12 03:47:44;;;;;;;86.78;8.48;;;;;;;2.49;100.00;97866.53;5000203;28;20025;-55
2022/04/12 03:50:09;;;;;;;94.70;9.18;;;;;;;2.49;100.00;97869.97;4998929;28;20030;-57
2022/04/12 03:52:34;;;;;;;83.45;7.70;;;;;;;2.49;100.00;97871.69;5000369;28;20065;-56
2022/04/12 03:55:00;;;;;;;76.57;7.85;;;;;;;2.42;100.00;97873.47;4997897;28;20034;-56
2022/04/12 03:57:25;;;;;;;89.55;8.55;;;;;;;2.39;100.00;97873.53;4998966;28;20057;-56
2022/04/12 03:59:50;;;;;;;73.13;7.40;;;;;;;1.98;100.00;97877.31;4999380;28;20116;-55
2022/04/12 04:02:16;;;;;;;97.63;8.50;;;;;;;2.41;100.00;97876.06;4998070;28;20034;-57
2022/04/12 04:04:41;;;;;;;89.85;8.65;;;;;;;2.40;100.00;97869.22;4998189;28;20123;-58
2022/04/12 04:07:07;;;;;;;91.53;8.60;;;;;;;2.40;100.00;97874.38;4997839;28;20176;-55
2022/04/12 04:09:32;;;;;;;80.03;8.18;;;;;;;2.43;100.00;97875.19;4997518;28;20046;-57
2022/04/12 04:11:57;;;;;;;80.13;8.82;;;;;;;2.40;100.00;97872.63;4999494;28;20038;-56
2022/04/12 04:14:23;;;;;;;100.28;9.20;;;;;;;2.39;100.00;97870.06;4998657;28;20018;-56
2022/04/12 04:16:48;;;;;;;94.65;8.70;;;;;;;2.35;100.00;97864.09;4997305;28;20405;-56
2022/04/12 04:19:13;;;;;;;107.95;9.38;;;;;;;2.22;100.00;97865.09;5000698;28;20133;-57
2022/04/12 04:21:39;;;;;;;112.90;10.50;;;;;;;2.35;100.00;97866.69;4997223;28;20124;-57
2022/04/12 04:24:05;;;;;;;76.13;8.63;;;;;;;2.34;100.00;97872.72;5000857;28;20092;-56
2022/04/12 04:26:31;;;;;;;90.50;9.50;;;;;;;2.38;100.00;97870.97;5000757;28;20045;-55
2022/04/12 04:28:56;;;;;;;91.13;9.90;;;;;;;2.28;100.00;97862.50;4999702;28;20021;-57
2022/04/12 04:31:22;;;;;;;87.32;10.15;;;;;;;2.42;100.00;97862.31;4998792;28;20072;-56
2022/04/12 04:33:47;;;;;;;94.20;10.40;;;;;;;2.35;100.00;97864.09;5002290;28;20534;-55
2022/04/12 04:36:13;;;;;;;97.05;9.73;;;;;;;2.50;100.00;97858.81;5000334;28;20750;-56
2022/04/12 04:38:38;;;;;;;87.93;9.93;;;;;;;2.53;100.00;97857.06;4997876;28;20592;-56
2022/04/12 04:41:04;;;;;;;75.65;9.10;;;;;;;2.72;100.00;97863.72;5000760;28;20042;-55
2022/04/12 04:43:29;;;;;;;87.65;9.80;;;;;;;2.77;100.00;97864.50;5003438;28;20021;-57
2022/04/12 04:45:54;;;;;;;101.93;9.60;;;;;;;3.05;100.00;97859.00;5000021;28;20160;-57
2022/04/12 04:48:20;;;;;;;87.47;8.82;;;;;;;3.29;100.00;97863.00;5003835;28;20557;-57
2022/04/12 04:50:45;;;;;;;83.55;9.45;;;;;;;3.53;100.00;97859.19;5003807;28;20034;-59
2022/04/12 04:53:10;;;;;;;87.55;9.20;;;;;;;3.60;100.00;97853.06;5004093;28;20103;-58
2022/04/12 04:55:37;;;;;;;101.10;10.20;;;;;;;3.79;100.00;97860.53;4999433;28;20041;-59
2022/04/12 04:58:04;;;;;;;88.80;9.43;;;;;;;4.02;100.00;97860.13;5003039;28;20030;-59
2022/04/12 05:00:31;;;;;;;65.95;7.80;;;;;;;4.42;100.00;97849.94;5001153;28;20060;-58
2022/04/12 05:02:58;;;;;;;99.45;9.65;;;;;;;5.45;100.00;97854.72;5001740;28;20057;-56
2022/04/12 05:05:24;;;;;;;81.07;9.18;;;;;;;5.19;100.00;97853.56;5000426;28;20145;-57
2022/04/12 05:07:51;;;;;;;75.32;9.05;;;;;;;5.89;100.00;97851.97;5002551;28;20557;-56
2022/04/12 05:10:22;;;;;;;74.50;8.38;;;;;;;7.03;100.00;97847.22;5001000;28;20035;-57
2022/04/12 05:12:48;;;;;;;71.20;7.95;;;;;;;6.46;100.00;97850.56;5003162;28;20041;-57
2022/04/12 05:15:14;;;;;;;84.00;8.23;;;;;;;6.25;100.00;97847.63;5001504;28;20030;-57
2022/04/12 05:17:39;;;;;;;67.30;7.65;;;;;;;6.93;100.00;97851.81;5006125;28;20117;-58
2022/04/12 05:20:06;;;;;;;97.63;8.68;;;;;;;6.70;100.00;97849.88;5002340;28;20084;-58
2022/04/12 05:22:31;;;;;;;76.20;7.97;;;;;;;7.76;100.00;97847.63;5003341;28;20793;-58
2022/04/12 05:24:57;;;;;;;84.68;8.30;;;;;;;8.19;100.00;97851.38;5004119;28;20670;-59
2022/04/12 05:27:22;;;;;;;70.47;7.65;;;;;;;9.37;100.00;97854.94;5003539;28;20102;-59
2022/04/12 05:29:48;;;;;;;73.90;7.78;;;;;;;10.88;94.47;97853.97;5003567;28;20025;-58
2022/04/12 05:32:13;;;;;;;92.93;8.85;;;;;;;11.47;83.56;97846.06;5002783;28;20487;-57
2022/04/12 05:34:40;;;;;;;73.88;7.78;;;;;;;12.69;78.28;97852.28;5002023;28;20721;-57
2022/04/12 05:37:05;;;;;;;74.88;7.82;;;;;;;12.25;74.35;97854.53;4997630;28;20041;-58
2022/04/12 05:39:31;;;;;;;69.03;7.82;;;;;;;13.35;69.04;97853.19;4998817;28;20127;-59
2022/04/12 05:42:01;;;;;;;66.15;7.75;;;;;;;13.03;64.14;97842.66;5000133;28;20069;-58
2022/04/12 05:44:33;;;;;;;82.65;8.55;;;;;;;13.05;62.99;97847.78;5002809;28;20080;-58
2022/04/12 05:46:59;;;;;;;67.88;7.22;;;;;;;15.32;57.38;97848.75;5001215;28;20990;-57
2022/04/12 05:49:24;;;;;;;72.95;7.82;;;;;;;15.04;55.19;97853.09;5002858;28;20018;-58
2022/04/12 05:51:49;;;;;;;71.55;8.15;;;;;;;15.86;52.55;97850.59;5002268;28;20541;-58
2022/04/12 05:54:15;;;;;;;71.60;8.20;;;;;;;14.92;54.17;97864.34;5002180;28;20034;-58
2022/04/12 05:56:40;;;;;;;58.60;7.07;;;;;;;14.44;54.20;97860.09;4999825;28;20038;-58
2022/04/12 05:59:06;;;;;;;67.55;7.57;;;;;;;14.53;53.81;97850.00;5003245;28;20052;-58
2022/04/12 06:01:31;;;;;;;70.85;7.85;;;;;;;13.52;57.39;97854.88;5001298;28;20117;-58
2022/04/12 06:03:57;;;;;;;64.68;7.70;;;;;;;14.50;55.41;97858.06;5001409;28;20028;-58
2022/04/12 06:06:22;;;;;;;71.22;7.70;;;;;;;16.60;51.08;97857.09;5002959;28;20119;-60
2022/04/12 06:08:47;;;;;;;63.95;7.45;;;;;;;15.99;51.36;97865.50;5005489;28;20036;-58
2022/04/12 06:11:13;;;;;;;55.65;6.80;;;;;;;16.44;49.75;97859.06;5002571;28;20046;-58
2022/04/12 06:13:38;;;;;;;70.00;7.68;;;;;;;15.96;50.12;97857.78;5001722;28;20513;-57
2022/04/12 06:16:03;;;;;;;55.53;6.65;;;;;;;16.00;49.54;97864.53;5001802;28;20045;-58
2022/04/12 06:18:29;;;;;;;63.05;6.82;;;;;;;17.26;46.91;97863.09;5000149;28;20145;-59
2022/04/12 06:20:54;;;;;;;69.95;7.20;;;;;;;17.26;48.03;97870.16;4999833;28;20034;-58
2022/04/12 06:23:19;;;;;;;68.75;8.57;;;;;;;17.22;48.31;97868.69;5001764;28;20048;-57
2022/04/12 06:25:45;;;;;;;71.93;8.52;;;;;;;16.74;49.53;97869.31;5003319;28;20030;-58
2022/04/12 06:28:10;;;;;;;60.20;6.80;;;;;;;17.59;45.62;97871.34;5001854;28;20535;-59
2022/04/12 06:30:35;;;;;;;64.45;7.97;;;;;;;16.96;48.61;97876.63;5000531;28;20596;-58
2022/04/12 06:33:01;;;;;;;69.57;7.32;;;;;;;16.89;49.91;97886.75;5003072;28;20061;-60
2022/04/12 06:35:26;;;;;;;60.15;7.22;;;;;;;16.13;47.75;97883.00;5001750;28;20038;-55
2022/04/12 06:37:53;;;;;;;72.75;7.60;;;;;;;16.24;47.28;97882.28;5000981;28;20034;-57
2022/04/12 06:40:19;;;;;;;65.55;7.20;;;;;;;16.58;48.33;97886.16;5003400;28;20129;-57
2022/04/12 06:42:46;;;;;;;64.38;6.70;;;;;;;18.30;44.28;97886.38;5003160;28;20023;-58
2022/04/12 06:45:11;;;;;;;64.88;7.10;;;;;;;19.20;41.62;97882.28;5001905;28;20052;-59
2022/04/12 06:47:37;;;;;;;57.97;6.75;;;;;;;18.52;42.05;97887.41;5000354;28;20034;-57
2022/04/12 06:50:03;;;;;;;68.10;7.50;;;;;;;17.69;44.71;97898.75;5000845;28;20060;-57
2022/04/12 06:52:29;;;;;;;66.28;7.13;;;;;;;19.40;42.02;97884.19;5003375;28;20054;-56
2022/04/12 06:54:54;;;;;;;88.57;8.18;;;;;;;19.72;40.10;97883.44;5000580;28;20049;-57
2022/04/12 06:57:20;;;;;;;59.55;6.65;;;;;;;20.71;37.90;97883.34;5000615;28;20486;-58
2022/04/12 06:59:45;;;;;;;63.20;6.88;;;;;;;19.53;38.74;97881.41;5001856;28;20036;-56
2022/04/12 07:02:10;;;;;;;62.00;6.72;;;;;;;20.49;37.97;97877.16;5002302;28;20088;-56
2022/04/12 07:04:36;;;;;;;61.75;6.57;;;;;;;18.66;40.09;97879.31;4997601;28;20029;-57
2022/04/12 07:07:03;;;;;;;68.45;7.68;;;;;;;22.12;36.03;97868.38;4996093;28;20104;-58
2022/04/12 07:09:30;;;;;;;60.88;6.47;;;;;;;19.61;38.79;97875.50;4998008;28;20032;-58
2022/04/12 07:11:59;;;;;;;56.47;6.20;;;;;;;19.36;38.69;97871.34;4998912;28;20045;-58
2022/04/12 07:14:26;;;;;;;67.50;6.97;;;;;;;18.65;39.90;97859.09;4997408;28;20168;-57
2022/04/12 07:16:52;;;;;;;72.10;7.25;;;;;;;19.58;39.27;97854.59;4997586;28;20088;-56
2022/04/12 07:19:17;;;;;;;65.40;6.75;;;;;;;20.61;37.80;97848.84;4996362;28;20021;-59
2022/04/12 07:21:43;;;;;;;63.50;6.65;;;;;;;19.55;38.77;97850.38;4996321;28;20061;-57
2022/04/12 07:24:09;;;;;;;60.25;6.45;;;;;;;20.80;37.03;97861.38;4998061;28;20027;-58
2022/04/12 07:26:34;;;;;;;71.32;7.20;;;;;;;21.35;35.69;97858.41;4995117;28;20041;-57
2022/04/12 07:29:00;;;;;;;69.07;6.75;;;;;;;21.93;35.58;97863.06;4997712;28;20638;-57
2022/04/12 07:31:26;;;;;;;72.03;7.28;;;;;;;19.75;37.49;97866.50;4999241;28;20045;-58
2022/04/12 07:33:51;;;;;;;62.08;6.53;;;;;;;20.55;36.95;97858.13;5001500;28;20061;-57
2022/04/12 07:36:17;;;;;;;61.92;6.13;;;;;;;21.17;35.36;97872.31;4998787;28;20038;-58
2022/04/12 07:38:43;;;;;;;72.65;6.65;;;;;;;21.31;35.53;97867.63;4997626;28;20034;-58
2022/04/12 07:41:09;;;;;;;69.47;6.90;;;;;;;20.40;36.71;97868.22;4995570;28;20531;-58
2022/04/12 07:43:35;;;;;;;76.78;7.53;;;;;;;20.54;37.63;97864.38;4998879;28;20068;-56
2022/04/12 07:46:00;;;;;;;58.75;6.25;;;;;;;22.83;33.19;97864.59;4997413;28;20128;-58
2022/04/12 07:48:26;;;;;;;59.63;6.30;;;;;;;22.57;33.52;97861.72;4998122;28;20035;-58
2022/04/12 07:50:51;;;;;;;50.53;5.47;;;;;;;22.04;33.87;97860.28;4997270;28;20038;-58
2022/04/12 07:53:17;;;;;;;63.17;6.50;;;;;;;22.58;33.80;97863.38;4999975;28;20395;-56
2022/04/12 07:55:42;;;;;;;60.42;6.13;;;;;;;23.13;31.79;97868.03;4998551;28;20038;-56
2022/04/12 07:58:07;;;;;;;67.43;6.57;;;;;;;23.69;31.17;97858.22;4997344;28;20026;-59
2022/04/12 08:00:33;;;;;;;58.65;6.13;;;;;;;22.65;32.21;97863.66;4998496;28;20040;-59
2022/04/12 08:02:58;;;;;;;74.28;7.05;;;;;;;21.87;33.53;97858.28;5000067;28;20028;-58
2022/04/12 08:05:23;;;;;;;63.97;6.55;;;;;;;23.18;30.31;97851.66;4998862;28;20029;-58
2022/04/12 08:07:49;;;;;;;96.10;8.15;;;;;;;22.48;32.65;97852.75;4993495;28;20026;-57
2022/04/12 08:10:18;;;;;;;63.20;6.75;;;;;;;23.32;30.88;97845.00;4999712;28;20025;-59
2022/04/12 08:12:45;;;;;;;69.50;6.75;;;;;;;22.19;30.84;97854.56;4998460;28;20046;-57
2022/04/12 08:15:12;;;;;;;60.35;5.72;;;;;;;24.09;30.69;97841.03;4997645;28;20022;-59
2022/04/12 08:17:39;;;;;;;56.67;5.82;;;;;;;25.13;28.71;97840.31;4996481;28;20534;-58
2022/04/12 08:20:05;;;;;;;64.93;6.25;;;;;;;23.58;29.22;97843.31;4997125;28;20063;-57
2022/04/12 08:22:32;;;;;;;69.40;6.35;;;;;;;21.47;32.14;97845.94;4999179;28;20634;-58
2022/04/12 08:24:58;;;;;;;74.43;6.78;;;;;;;21.05;32.59;97853.97;4999285;28;20029;-58
2022/04/12 08:27:24;;;;;;;66.32;6.32;;;;;;;21.26;32.10;97854.75;4996162;28;20049;-57
2022/04/12 08:29:49;;;;;;;66.32;6.43;;;;;;;22.19;31.81;97852.75;5001075;28;20037;-58
2022/04/12 08:32:16;;;;;;;64.90;6.05;;;;;;;20.93;32.30;97847.91;4999216;28;20038;-59
2022/04/12 08:34:41;;;;;;;69.55;6.75;;;;;;;19.96;33.95;97848.03;4996860;28;20022;-57
2022/04/12 08:37:07;;;;;;;68.50;6.35;;;;;;;19.60;33.67;97848.22;4994562;28;20041;-59
2022/04/12 08:39:33;;;;;;;61.10;6.13;;;;;;;21.69;31.80;97853.66;4997434;28;20034;-57
2022/04/12 08:42:00;;;;;;;75.78;7.22;;;;;;;21.07;32.55;97849.38;4997101;28;20128;-59
2022/04/12 08:44:26;;;;;;;74.18;6.63;;;;;;;21.86;31.28;97843.34;4995208;28;20038;-58
2022/04/12 08:46:55;;;;;;;70.20;6.50;;;;;;;21.42;32.45;97848.94;4996192;28;20088;-56
2022/04/12 08:49:22;;;;;;;69.70;6.47;;;;;;;21.11;32.38;97845.50;4995544;28;20034;-57
2022/04/12 08:51:48;;;;;;;59.70;5.85;;;;;;;22.43;31.63;97832.91;4994774;28;20037;-56
2022/04/12 08:54:15;;;;;;;74.72;6.70;;;;;;;22.12;32.02;97836.50;4999617;28;20109;-58
2022/04/12 08:56:43;;;;;;;69.32;6.30;;;;;;;22.86;30.56;97824.41;4985392;28;20044;-58
2022/04/12 08:59:08;;;;;;;66.03;6.32;;;;;;;23.39;29.67;97811.47;4998092;28;20423;-56
2022/04/12 09:01:34;;;;;;;59.22;5.70;;;;;;;22.68;30.24;97815.50;4996738;28;20538;-59
2022/04/12 09:04:00;;;;;;;54.08;5.68;;;;;;;24.12;29.15;97810.59;4995155;28;20017;-57
2022/04/12 09:06:25;;;;;;;85.75;7.47;;;;;;;23.59;29.50;97805.03;4994500;28;20484;-57
2022/04/12 09:08:51;;;;;;;97.57;8.20;;;;;;;23.66;28.63;97815.94;4995099;28;20033;-57
2022/04/12 09:11:17;;;;;;;65.55;6.18;;;;;;;23.95;27.19;97822.91;4998145;28;20038;-59
2022/04/12 09:13:58;;;;;;;69.05;6.40;;;;;;;23.17;28.46;97815.38;4996789;28;20030;-58
2022/04/12 09:16:24;;;;;;;75.43;6.70;;;;;;;22.58;29.47;97809.38;4994557;28;20038;-58
2022/04/12 09:18:49;;;;;;;61.25;6.03;;;;;;;22.31;28.83;97800.31;4999342;28;20058;-58
2022/04/12 09:21:15;;;;;;;69.25;6.50;;;;;;;21.85;29.56;97809.81;4999109;28;20069;-56
2022/04/12 09:23:49;;;;;;;76.18;6.90;;;;;;;21.97;29.77;97800.75;5000849;28;20505;-58
2022/04/12 09:26:21;;;;;;;64.97;6.10;;;;;;;22.18;29.53;97807.72;4995785;28;20478;-58
2022/04/12 09:28:47;;;;;;;74.50;6.63;;;;;;;23.82;28.10;97799.31;4999869;28;20040;-58
2022/04/12 09:31:18;;;;;;;58.25;5.57;;;;;;;22.62;28.88;97805.44;5001793;28;20050;-58
2022/04/12 09:33:45;;;;;;;59.70;6.10;;;;;;;23.19;27.89;97808.06;5002058;28;20030;-57
2022/04/12 09:36:11;;;;;;;60.97;5.50;;;;;;;23.71;27.46;97800.38;4999581;28;20041;-57
2022/04/12 09:38:38;;;;;;;63.78;5.97;;;;;;;24.97;26.66;97805.53;4995727;28;20029;-58
2022/04/12 09:41:18;;;;;;;62.25;5.85;;;;;;;22.61;29.05;97798.47;4993394;28;20600;-57
2022/04/12 09:44:16;;;;;;;69.00;6.25;;;;;;;23.41;27.45;97791.69;5002332;28;20579;-59
2022/04/12 09:46:42;;;;;;;57.22;5.60;;;;;;;24.16;26.89;97794.13;4997816;28;20046;-57
2022/04/12 09:49:08;;;;;;;58.88;5.57;;;;;;;24.31;27.24;97783.75;5001169;28;20037;-58
2022/04/12 09:51:38;;;;;;;58.20;5.40;;;;;;;24.09;27.78;97786.91;5001650;28;20878;-58
2022/04/12 09:54:06;;;;;;;62.40;5.78;;;;;;;24.41;26.97;97781.84;5015044;28;20144;-58
2022/04/12 09:56:32;;;;;;;77.90;6.38;;;;;;;23.97;27.44;97781.81;5000659;28;20045;-56
2022/04/12 09:59:02;;;;;;;73.03;6.30;;;;;;;23.96;27.60;97774.81;5005047;28;20579;-57
2022/04/12 10:01:28;;;;;;;56.40;5.35;;;;;;;23.48;27.76;97778.66;5001391;28;20091;-58
2022/04/12 10:03:56;;;;;;;67.05;5.72;;;;;;;24.44;27.13;97778.88;5002790;28;20041;-58
2022/04/12 10:06:27;;;;;;;56.33;5.03;;;;;;;23.15;28.15;97775.59;5001014;28;20030;-57
2022/04/12 10:08:59;;;;;;;59.78;5.25;;;;;;;24.20;26.84;97773.34;5000139;28;20080;-57
2022/04/12 10:11:25;;;;;;;60.72;5.30;;;;;;;23.81;30.42;97768.34;5003268;28;20050;-58
2022/04/12 10:13:51;;;;;;;52.35;5.10;;;;;;;22.94;28.72;97772.31;5003894;28;20081;-58
2022/04/12 10:16:19;;;;;;;61.05;5.47;;;;;;;23.96;28.65;97774.81;4998923;28;20029;-58
2022/04/12 10:18:45;;;;;;;124.05;10.27;;;;;;;23.79;28.73;97767.66;4982419;28;20586;-57
2022/04/12 10:21:12;;;;;;;120.65;9.57;;;;;;;23.84;28.23;97765.41;4978707;28;20046;-58
2022/04/12 10:23:41;;;;;;;67.68;5.82;;;;;;;22.94;29.15;97772.31;4980880;28;20037;-59
2022/04/12 10:26:07;;;;;;;157.02;11.85;;;;;;;22.43;30.36;97775.28;4981207;28;20101;-59
2022/04/12 10:28:33;;;;;;;130.63;10.43;;;;;;;23.29;29.29;97768.97;4981712;28;20033;-59
2022/04/12 10:31:03;;;;;;;76.70;6.32;;;;;;;20.89;31.57;97762.50;4981694;28;20038;-59
2022/04/12 10:33:29;;;;;;;86.38;6.78;;;;;;;22.05;31.31;97760.19;4985560;28;20117;-59
2022/04/12 10:35:55;;;;;;;65.20;5.75;;;;;;;22.68;30.39;97757.88;4999342;28;20038;-60
2022/04/12 10:38:25;;;;;;;79.60;6.53;;;;;;;21.94;31.59;97747.91;4998331;28;20092;-58
2022/04/12 10:40:57;;;;;;;74.10;6.55;;;;;;;20.93;32.87;97753.28;4997679;28;20046;-59
2022/04/12 10:43:33;;;;;;;81.15;6.60;;;;;;;21.21;32.21;97750.91;4997194;28;20117;-57
2022/04/12 10:46:11;;;;;;;81.22;6.75;;;;;;;21.97;31.34;97747.63;4994293;28;20046;-58
2022/04/12 10:48:37;;;;;;;72.13;6.10;;;;;;;21.05;32.54;97746.09;4994128;28;20736;-59
2022/04/12 10:51:05;;;;;;;84.00;6.78;;;;;;;21.89;31.60;97739.50;4995885;28;20030;-58
2022/04/12 10:53:39;;;;;;;85.90;6.65;;;;;;;22.59;31.12;97736.63;5000838;28;21009;-60
2022/04/12 10:56:09;;;;;;;79.20;6.45;;;;;;;23.02;30.65;97732.53;4997576;28;20050;-59
2022/04/12 10:58:35;;;;;;;82.07;6.70;;;;;;;22.19;31.08;97735.03;5002398;28;20030;-59
2022/04/12 11:01:01;;;;;;;81.97;6.60;;;;;;;22.34;30.77;97723.00;4998035;28;20084;-58
2022/04/12 11:03:52;;;;;;;85.32;6.90;;;;;;;22.10;30.76;97720.78;4999334;28;20030;-58
2022/04/12 11:06:23;;;;;;;79.07;6.60;;;;;;;21.97;31.20;97726.38;4998846;28;20050;-59
2022/04/12 11:08:51;;;;;;;74.25;6.05;;;;;;;22.79;30.65;97727.59;4994584;28;20043;-55
2022/04/12 11:11:41;;;;;;;123.90;9.32;;;;;;;23.44;30.71;97726.72;4993947;28;20117;-58
2022/04/12 11:14:27;;;;;;;95.80;7.40;;;;;;;22.29;28.48;97730.56;4991246;28;21339;-57
2022/04/12 11:17:01;;;;;;;141.75;10.13;;;;;;;21.66;31.68;97729.19;4989148;28;20048;-56
2022/04/12 11:19:27;;;;;;;91.00;7.20;;;;;;;22.01;31.18;97724.28;4993197;28;20032;-58
2022/04/12 11:21:55;;;;;;;93.82;7.57;;;;;;;21.78;31.21;97721.06;4993572;28;20080;-58
2022/04/12 11:24:21;;;;;;;90.50;7.18;;;;;;;21.36;30.64;97716.84;4992497;28;20037;-59